sensor_id;sensor_type;location;lat;lon;timestamp;P1;durP1;ratioP1;P2;durP2;ratioP2
5971;SDS011;3012;49.944;8.454;2024-02-26T00:01:06;0.70;;;0.70;;
5971;SDS011;3012;49.944;8.454;2024-02-26T00:03:36;0.73;;;0.73;;
5971;SDS011;3012;49.944;8.454;2024-02-26T00:06:09;0.63;;;0.63;;
5971;SDS011;3012;49.944;8.454;2024-02-26T00:08:41;1.27;;;0.80;;
5971;SDS011;3012;49.944;8.454;2024-02-26T00:11:11;0.90;;;0.90;;
5971;SDS011;3012;49.944;8.454;2024-02-26T00:13:41;0.60;;;0.60;;
5971;SDS011;3012;49.944;8.454;2024-02-26T00:16:11;0.70;;;0.70;;
5971;SDS011;3012;49.944;8.454;2024-02-26T00:18:43;1.50;;;1.00;;
5971;SDS011;3012;49.944;8.454;2024-02-26T00:21:16;1.60;;;0.70;;
5971;SDS011;3012;49.944;8.454;2024-02-26T00:23:50;4.57;;;3.17;;
5971;SDS011;3012;49.944;8.454;2024-02-26T00:26:21;8.80;;;5.53;;
5971;SDS011;3012;49.944;8.454;2024-02-26T00:28:52;4.97;;;3.20;;
5971;SDS011;3012;49.944;8.454;2024-02-26T00:31:22;5.70;;;3.20;;
5971;SDS011;3012;49.944;8.454;2024-02-26T00:33:53;4.50;;;3.77;;
5971;SDS011;3012;49.944;8.454;2024-02-26T00:36:43;4.93;;;3.23;;
5971;SDS011;3012;49.944;8.454;2024-02-26T00:39:27;1.00;;;1.00;;
5971;SDS011;3012;49.944;8.454;2024-02-26T00:42:12;2.03;;;1.77;;
5971;SDS011;3012;49.944;8.454;2024-02-26T00:45:36;0.90;;;0.70;;
5971;SDS011;3012;49.944;8.454;2024-02-26T00:48:17;1.27;;;0.90;;
5971;SDS011;3012;49.944;8.454;2024-02-26T00:50:58;1.83;;;1.53;;
5971;SDS011;3012;49.944;8.454;2024-02-26T00:53:27;7.73;;;1.63;;
5971;SDS011;3012;49.944;8.454;2024-02-26T00:55:57;2.40;;;1.53;;
5971;SDS011;3012;49.944;8.454;2024-02-26T00:58:26;1.37;;;1.20;;
5971;SDS011;3012;49.944;8.454;2024-02-26T01:00:56;1.30;;;1.20;;
5971;SDS011;3012;49.944;8.454;2024-02-26T01:03:26;3.47;;;1.00;;
5971;SDS011;3012;49.944;8.454;2024-02-26T01:05:56;1.10;;;1.07;;
5971;SDS011;3012;49.944;8.454;2024-02-26T01:08:26;2.00;;;0.97;;
5971;SDS011;3012;49.944;8.454;2024-02-26T01:10:57;2.90;;;1.13;;
5971;SDS011;3012;49.944;8.454;2024-02-26T01:13:27;2.03;;;1.00;;
5971;SDS011;3012;49.944;8.454;2024-02-26T01:16:12;0.83;;;0.83;;
5971;SDS011;3012;49.944;8.454;2024-02-26T01:18:42;0.50;;;0.50;;
5971;SDS011;3012;49.944;8.454;2024-02-26T01:21:11;2.90;;;0.90;;
5971;SDS011;3012;49.944;8.454;2024-02-26T01:23:39;1.63;;;1.07;;
5971;SDS011;3012;49.944;8.454;2024-02-26T01:26:10;0.90;;;0.80;;
5971;SDS011;3012;49.944;8.454;2024-02-26T01:28:38;1.20;;;0.80;;
5971;SDS011;3012;49.944;8.454;2024-02-26T01:31:08;0.80;;;0.80;;
5971;SDS011;3012;49.944;8.454;2024-02-26T01:33:37;1.83;;;0.63;;
5971;SDS011;3012;49.944;8.454;2024-02-26T01:36:07;0.80;;;0.80;;
5971;SDS011;3012;49.944;8.454;2024-02-26T01:38:35;3.03;;;1.00;;
5971;SDS011;3012;49.944;8.454;2024-02-26T01:41:04;0.87;;;0.60;;
5971;SDS011;3012;49.944;8.454;2024-02-26T01:43:34;0.60;;;0.60;;
5971;SDS011;3012;49.944;8.454;2024-02-26T01:46:03;0.80;;;0.60;;
5971;SDS011;3012;49.944;8.454;2024-02-26T01:48:32;0.70;;;0.70;;
5971;SDS011;3012;49.944;8.454;2024-02-26T01:51:01;0.70;;;0.70;;
5971;SDS011;3012;49.944;8.454;2024-02-26T01:53:30;3.70;;;0.83;;
5971;SDS011;3012;49.944;8.454;2024-02-26T01:55:58;1.30;;;1.20;;
5971;SDS011;3012;49.944;8.454;2024-02-26T01:58:28;1.30;;;1.20;;
5971;SDS011;3012;49.944;8.454;2024-02-26T02:00:59;3.70;;;2.80;;
5971;SDS011;3012;49.944;8.454;2024-02-26T02:03:30;3.87;;;2.90;;
5971;SDS011;3012;49.944;8.454;2024-02-26T02:05:59;2.60;;;2.30;;
5971;SDS011;3012;49.944;8.454;2024-02-26T02:08:28;7.93;;;4.10;;
5971;SDS011;3012;49.944;8.454;2024-02-26T02:10:56;3.93;;;2.73;;
5971;SDS011;3012;49.944;8.454;2024-02-26T02:13:24;10.13;;;5.77;;
5971;SDS011;3012;49.944;8.454;2024-02-26T02:15:53;4.23;;;3.83;;
5971;SDS011;3012;49.944;8.454;2024-02-26T02:18:22;3.00;;;2.63;;
5971;SDS011;3012;49.944;8.454;2024-02-26T02:20:52;1.73;;;1.60;;
5971;SDS011;3012;49.944;8.454;2024-02-26T02:23:23;3.47;;;2.10;;
5971;SDS011;3012;49.944;8.454;2024-02-26T02:25:51;5.77;;;2.83;;
5971;SDS011;3012;49.944;8.454;2024-02-26T02:28:21;2.40;;;2.20;;
5971;SDS011;3012;49.944;8.454;2024-02-26T02:30:49;1.13;;;1.00;;
5971;SDS011;3012;49.944;8.454;2024-02-26T02:33:18;0.70;;;0.70;;
5971;SDS011;3012;49.944;8.454;2024-02-26T02:35:47;0.63;;;0.60;;
5971;SDS011;3012;49.944;8.454;2024-02-26T02:38:20;2.17;;;0.90;;
5971;SDS011;3012;49.944;8.454;2024-02-26T02:40:53;1.27;;;0.70;;
5971;SDS011;3012;49.944;8.454;2024-02-26T02:43:21;1.23;;;0.90;;
5971;SDS011;3012;49.944;8.454;2024-02-26T02:45:50;0.63;;;0.50;;
5971;SDS011;3012;49.944;8.454;2024-02-26T02:48:19;1.53;;;1.23;;
5971;SDS011;3012;49.944;8.454;2024-02-26T02:50:49;4.60;;;1.07;;
5971;SDS011;3012;49.944;8.454;2024-02-26T02:53:17;1.37;;;1.00;;
5971;SDS011;3012;49.944;8.454;2024-02-26T02:55:47;2.23;;;1.10;;
5971;SDS011;3012;49.944;8.454;2024-02-26T02:58:17;3.50;;;0.60;;
5971;SDS011;3012;49.944;8.454;2024-02-26T03:00:45;1.37;;;1.20;;
5971;SDS011;3012;49.944;8.454;2024-02-26T03:03:14;0.40;;;0.40;;
5971;SDS011;3012;49.944;8.454;2024-02-26T03:05:43;0.60;;;0.60;;
5971;SDS011;3012;49.944;8.454;2024-02-26T03:08:13;0.90;;;0.90;;
5971;SDS011;3012;49.944;8.454;2024-02-26T03:10:43;3.77;;;0.87;;
5971;SDS011;3012;49.944;8.454;2024-02-26T03:13:13;0.90;;;0.90;;
5971;SDS011;3012;49.944;8.454;2024-02-26T03:15:42;0.80;;;0.80;;
5971;SDS011;3012;49.944;8.454;2024-02-26T03:18:11;0.53;;;0.53;;
5971;SDS011;3012;49.944;8.454;2024-02-26T03:20:40;1.07;;;0.80;;
5971;SDS011;3012;49.944;8.454;2024-02-26T03:23:08;1.10;;;0.87;;
5971;SDS011;3012;49.944;8.454;2024-02-26T03:25:39;1.07;;;1.00;;
5971;SDS011;3012;49.944;8.454;2024-02-26T03:28:10;4.23;;;1.03;;
5971;SDS011;3012;49.944;8.454;2024-02-26T03:30:39;0.73;;;0.73;;
5971;SDS011;3012;49.944;8.454;2024-02-26T03:33:08;0.83;;;0.83;;
5971;SDS011;3012;49.944;8.454;2024-02-26T03:35:36;1.07;;;0.80;;
5971;SDS011;3012;49.944;8.454;2024-02-26T03:38:05;1.13;;;1.00;;
5971;SDS011;3012;49.944;8.454;2024-02-26T03:40:33;1.07;;;1.07;;
5971;SDS011;3012;49.944;8.454;2024-02-26T03:43:02;3.03;;;1.03;;
5971;SDS011;3012;49.944;8.454;2024-02-26T03:45:32;1.80;;;1.03;;
5971;SDS011;3012;49.944;8.454;2024-02-26T03:48:01;1.37;;;0.80;;
5971;SDS011;3012;49.944;8.454;2024-02-26T03:50:30;2.37;;;1.00;;
5971;SDS011;3012;49.944;8.454;2024-02-26T03:52:58;1.67;;;1.07;;
5971;SDS011;3012;49.944;8.454;2024-02-26T03:55:27;1.20;;;1.07;;
5971;SDS011;3012;49.944;8.454;2024-02-26T03:57:55;0.93;;;0.93;;
5971;SDS011;3012;49.944;8.454;2024-02-26T04:00:24;1.33;;;1.23;;
5971;SDS011;3012;49.944;8.454;2024-02-26T04:02:55;2.63;;;1.10;;
5971;SDS011;3012;49.944;8.454;2024-02-26T04:05:23;0.60;;;0.60;;
5971;SDS011;3012;49.944;8.454;2024-02-26T04:07:52;4.43;;;0.90;;
5971;SDS011;3012;49.944;8.454;2024-02-26T04:10:20;2.30;;;1.20;;
5971;SDS011;3012;49.944;8.454;2024-02-26T04:12:49;1.03;;;0.93;;
5971;SDS011;3012;49.944;8.454;2024-02-26T04:15:18;0.90;;;0.90;;
5971;SDS011;3012;49.944;8.454;2024-02-26T04:17:46;3.50;;;1.20;;
5971;SDS011;3012;49.944;8.454;2024-02-26T04:20:17;1.43;;;1.30;;
5971;SDS011;3012;49.944;8.454;2024-02-26T04:22:46;4.23;;;1.03;;
5971;SDS011;3012;49.944;8.454;2024-02-26T04:25:15;1.10;;;1.10;;
5971;SDS011;3012;49.944;8.454;2024-02-26T04:27:44;4.23;;;1.20;;
5971;SDS011;3012;49.944;8.454;2024-02-26T04:30:13;2.50;;;1.20;;
5971;SDS011;3012;49.944;8.454;2024-02-26T04:32:44;1.83;;;1.20;;
5971;SDS011;3012;49.944;8.454;2024-02-26T04:35:13;1.53;;;1.20;;
5971;SDS011;3012;49.944;8.454;2024-02-26T04:37:45;2.33;;;1.20;;
5971;SDS011;3012;49.944;8.454;2024-02-26T04:40:13;5.00;;;1.07;;
5971;SDS011;3012;49.944;8.454;2024-02-26T04:42:42;1.00;;;1.00;;
5971;SDS011;3012;49.944;8.454;2024-02-26T04:45:11;1.20;;;1.20;;
5971;SDS011;3012;49.944;8.454;2024-02-26T04:47:39;1.07;;;0.97;;
5971;SDS011;3012;49.944;8.454;2024-02-26T04:50:09;2.70;;;1.40;;
5971;SDS011;3012;49.944;8.454;2024-02-26T04:52:37;3.07;;;1.30;;
5971;SDS011;3012;49.944;8.454;2024-02-26T04:55:08;1.60;;;1.47;;
5971;SDS011;3012;49.944;8.454;2024-02-26T04:57:37;2.70;;;1.47;;
5971;SDS011;3012;49.944;8.454;2024-02-26T05:00:06;3.40;;;1.50;;
5971;SDS011;3012;49.944;8.454;2024-02-26T05:02:37;1.13;;;1.07;;
5971;SDS011;3012;49.944;8.454;2024-02-26T05:05:06;2.90;;;1.63;;
5971;SDS011;3012;49.944;8.454;2024-02-26T05:07:39;2.13;;;1.20;;
5971;SDS011;3012;49.944;8.454;2024-02-26T05:10:10;2.90;;;1.13;;
5971;SDS011;3012;49.944;8.454;2024-02-26T05:12:39;1.93;;;1.00;;
5971;SDS011;3012;49.944;8.454;2024-02-26T05:15:09;5.50;;;1.50;;
5971;SDS011;3012;49.944;8.454;2024-02-26T05:17:42;2.73;;;1.20;;
5971;SDS011;3012;49.944;8.454;2024-02-26T05:20:11;2.07;;;1.20;;
5971;SDS011;3012;49.944;8.454;2024-02-26T05:22:40;5.60;;;1.60;;
5971;SDS011;3012;49.944;8.454;2024-02-26T05:25:11;5.57;;;1.63;;
5971;SDS011;3012;49.944;8.454;2024-02-26T05:27:43;1.33;;;1.23;;
5971;SDS011;3012;49.944;8.454;2024-02-26T05:30:12;1.57;;;1.47;;
5971;SDS011;3012;49.944;8.454;2024-02-26T05:32:42;2.60;;;1.30;;
5971;SDS011;3012;49.944;8.454;2024-02-26T05:35:12;2.30;;;1.27;;
5971;SDS011;3012;49.944;8.454;2024-02-26T05:37:41;3.03;;;1.73;;
5971;SDS011;3012;49.944;8.454;2024-02-26T05:40:12;2.83;;;1.50;;
5971;SDS011;3012;49.944;8.454;2024-02-26T05:42:41;1.30;;;1.23;;
5971;SDS011;3012;49.944;8.454;2024-02-26T05:45:11;1.57;;;1.30;;
5971;SDS011;3012;49.944;8.454;2024-02-26T05:47:40;5.07;;;3.20;;
5971;SDS011;3012;49.944;8.454;2024-02-26T05:50:10;7.27;;;4.30;;
5971;SDS011;3012;49.944;8.454;2024-02-26T05:52:39;4.30;;;3.93;;
5971;SDS011;3012;49.944;8.454;2024-02-26T05:55:08;4.23;;;3.23;;
5971;SDS011;3012;49.944;8.454;2024-02-26T05:57:38;12.30;;;4.83;;
5971;SDS011;3012;49.944;8.454;2024-02-26T06:00:07;7.00;;;4.00;;
5971;SDS011;3012;49.944;8.454;2024-02-26T06:02:40;3.80;;;3.47;;
5971;SDS011;3012;49.944;8.454;2024-02-26T06:05:09;3.10;;;2.80;;
5971;SDS011;3012;49.944;8.454;2024-02-26T06:07:37;8.43;;;2.77;;
5971;SDS011;3012;49.944;8.454;2024-02-26T06:10:05;3.67;;;2.43;;
5971;SDS011;3012;49.944;8.454;2024-02-26T06:12:35;3.40;;;2.60;;
5971;SDS011;3012;49.944;8.454;2024-02-26T06:15:05;4.80;;;2.13;;
5971;SDS011;3012;49.944;8.454;2024-02-26T06:17:34;3.43;;;2.77;;
5971;SDS011;3012;49.944;8.454;2024-02-26T06:20:02;4.70;;;2.50;;
5971;SDS011;3012;49.944;8.454;2024-02-26T06:22:33;2.63;;;2.13;;
5971;SDS011;3012;49.944;8.454;2024-02-26T06:25:01;2.73;;;2.53;;
5971;SDS011;3012;49.944;8.454;2024-02-26T06:27:29;3.27;;;2.90;;
5971;SDS011;3012;49.944;8.454;2024-02-26T06:29:57;2.90;;;2.70;;
5971;SDS011;3012;49.944;8.454;2024-02-26T06:32:27;4.20;;;2.13;;
5971;SDS011;3012;49.944;8.454;2024-02-26T06:34:55;2.27;;;1.97;;
5971;SDS011;3012;49.944;8.454;2024-02-26T06:37:24;3.83;;;3.07;;
5971;SDS011;3012;49.944;8.454;2024-02-26T06:39:52;3.63;;;3.33;;
5971;SDS011;3012;49.944;8.454;2024-02-26T06:42:20;2.83;;;2.67;;
5971;SDS011;3012;49.944;8.454;2024-02-26T06:44:49;4.63;;;3.30;;
5971;SDS011;3012;49.944;8.454;2024-02-26T06:47:17;4.00;;;3.10;;
5971;SDS011;3012;49.944;8.454;2024-02-26T06:49:47;2.80;;;2.60;;
5971;SDS011;3012;49.944;8.454;2024-02-26T06:52:15;3.83;;;3.27;;
5971;SDS011;3012;49.944;8.454;2024-02-26T06:54:43;3.90;;;2.97;;
5971;SDS011;3012;49.944;8.454;2024-02-26T06:57:13;4.10;;;3.30;;
5971;SDS011;3012;49.944;8.454;2024-02-26T06:59:41;3.37;;;3.03;;
5971;SDS011;3012;49.944;8.454;2024-02-26T07:02:12;4.40;;;4.00;;
5971;SDS011;3012;49.944;8.454;2024-02-26T07:04:41;3.60;;;3.40;;
5971;SDS011;3012;49.944;8.454;2024-02-26T07:07:10;3.87;;;3.63;;
5971;SDS011;3012;49.944;8.454;2024-02-26T07:09:41;6.47;;;2.90;;
5971;SDS011;3012;49.944;8.454;2024-02-26T07:12:09;2.93;;;2.63;;
5971;SDS011;3012;49.944;8.454;2024-02-26T07:14:37;3.73;;;3.43;;
5971;SDS011;3012;49.944;8.454;2024-02-26T07:17:06;3.87;;;3.43;;
5971;SDS011;3012;49.944;8.454;2024-02-26T07:19:34;4.00;;;3.60;;
5971;SDS011;3012;49.944;8.454;2024-02-26T07:22:02;4.13;;;3.10;;
5971;SDS011;3012;49.944;8.454;2024-02-26T07:24:31;8.50;;;3.80;;
5971;SDS011;3012;49.944;8.454;2024-02-26T07:26:59;4.40;;;3.77;;
5971;SDS011;3012;49.944;8.454;2024-02-26T07:29:28;5.60;;;3.77;;
5971;SDS011;3012;49.944;8.454;2024-02-26T07:31:56;5.33;;;4.00;;
5971;SDS011;3012;49.944;8.454;2024-02-26T07:34:25;7.10;;;4.43;;
5971;SDS011;3012;49.944;8.454;2024-02-26T07:36:56;3.60;;;3.30;;
5971;SDS011;3012;49.944;8.454;2024-02-26T07:39:24;5.43;;;3.70;;
5971;SDS011;3012;49.944;8.454;2024-02-26T07:41:55;7.03;;;4.43;;
5971;SDS011;3012;49.944;8.454;2024-02-26T07:44:24;9.47;;;4.37;;
5971;SDS011;3012;49.944;8.454;2024-02-26T07:46:52;8.27;;;3.93;;
5971;SDS011;3012;49.944;8.454;2024-02-26T07:49:21;7.50;;;4.53;;
5971;SDS011;3012;49.944;8.454;2024-02-26T07:51:49;4.03;;;3.67;;
5971;SDS011;3012;49.944;8.454;2024-02-26T07:54:17;9.57;;;4.47;;
5971;SDS011;3012;49.944;8.454;2024-02-26T07:56:46;5.97;;;3.30;;
5971;SDS011;3012;49.944;8.454;2024-02-26T07:59:15;4.83;;;4.30;;
5971;SDS011;3012;49.944;8.454;2024-02-26T08:01:44;4.30;;;3.40;;
5971;SDS011;3012;49.944;8.454;2024-02-26T08:04:22;4.33;;;3.97;;
5971;SDS011;3012;49.944;8.454;2024-02-26T08:13:40;5.37;;;3.23;;
5971;SDS011;3012;49.944;8.454;2024-02-26T10:52:07;16.27;;;8.15;;
5971;SDS011;3012;49.944;8.454;2024-02-26T11:13:43;4.97;;;3.25;;
5971;SDS011;3012;49.944;8.454;2024-02-26T11:39:05;3.25;;;2.90;;
5971;SDS011;3012;49.944;8.454;2024-02-26T11:41:34;4.40;;;3.13;;
5971;SDS011;3012;49.944;8.454;2024-02-26T11:44:04;3.72;;;3.00;;
5971;SDS011;3012;49.944;8.454;2024-02-26T11:46:34;3.45;;;2.80;;
5971;SDS011;3012;49.944;8.454;2024-02-26T11:52:04;4.55;;;3.53;;
5971;SDS011;3012;49.944;8.454;2024-02-26T11:54:38;2.95;;;2.65;;
5971;SDS011;3012;49.944;8.454;2024-02-26T11:57:19;2.97;;;2.70;;
5971;SDS011;3012;49.944;8.454;2024-02-26T11:59:52;3.95;;;2.88;;
5971;SDS011;3012;49.944;8.454;2024-02-26T12:05:27;3.97;;;2.80;;
5971;SDS011;3012;49.944;8.454;2024-02-26T12:08:00;4.68;;;2.90;;
5971;SDS011;3012;49.944;8.454;2024-02-26T12:10:36;3.78;;;2.47;;
